RYR9946 LFPO-EDDK
Flight info
| Callsign | RYR9946 |
|---|---|
| Flight time | 0h 46m |
| Altitude | 22000 |
| Route | DIKOL J10 SUIPE/N0386F190 M163 MMD Y180 DIK N853 ARCKY T853 IBESA T860 ERUKI T856 DEPOK |
| Aircraft | B738/M-SDE2E3FGHIRWXY/LB1 |
Departure
| Time | 2026-04-19 23:48 |
|---|---|
| Airport | Paris-Orly Airport (LFPO) |
Arrival
| Time | 2026-04-20 00:34 |
|---|---|
| Airport | Cologne Bonn Airport (EDDK) |
| Time | Latitude | Longitude | Altitude | Speed | Heading |
|---|---|---|---|---|---|
| 2026-04-19 23:34 | 48.73327 | 2.37893 | 293 ft | 0 kts | 289° |
| 2026-04-19 23:38 | 48.73326 | 2.37898 | 293 ft | 4 kts | 289° |
| 2026-04-19 23:38 | 48.73318 | 2.37935 | 297 ft | 0 kts | 290° |
| 2026-04-19 23:39 | 48.73312 | 2.38005 | 297 ft | 10 kts | 230° |
| 2026-04-19 23:39 | 48.73337 | 2.38030 | 295 ft | 1 kts | 197° |
| 2026-04-19 23:39 | 48.73335 | 2.38029 | 295 ft | 0 kts | 197° |
| 2026-04-19 23:40 | 48.73331 | 2.38027 | 296 ft | 2 kts | 195° |
| 2026-04-19 23:40 | 48.73269 | 2.37998 | 293 ft | 18 kts | 199° |
| 2026-04-19 23:40 | 48.73137 | 2.37932 | 294 ft | 20 kts | 198° |
| 2026-04-19 23:41 | 48.73004 | 2.37866 | 297 ft | 20 kts | 197° |
| 2026-04-19 23:41 | 48.72877 | 2.37802 | 297 ft | 19 kts | 198° |
| 2026-04-19 23:41 | 48.72791 | 2.37670 | 298 ft | 18 kts | 254° |
| 2026-04-19 23:41 | 48.72756 | 2.37486 | 297 ft | 19 kts | 249° |
| 2026-04-19 23:42 | 48.72710 | 2.37274 | 294 ft | 23 kts | 254° |
| 2026-04-19 23:42 | 48.72667 | 2.37025 | 294 ft | 24 kts | 262° |
| 2026-04-19 23:42 | 48.72625 | 2.36805 | 295 ft | 21 kts | 250° |
| 2026-04-19 23:42 | 48.72578 | 2.36594 | 294 ft | 21 kts | 254° |
| 2026-04-19 23:43 | 48.72540 | 2.36385 | 295 ft | 20 kts | 254° |
| 2026-04-19 23:43 | 48.72467 | 2.36233 | 297 ft | 19 kts | 188° |
| 2026-04-19 23:43 | 48.72400 | 2.36117 | 295 ft | 16 kts | 255° |
| 2026-04-19 23:43 | 48.72367 | 2.35932 | 295 ft | 21 kts | 255° |
| 2026-04-19 23:44 | 48.72329 | 2.35717 | 296 ft | 21 kts | 254° |
| 2026-04-19 23:44 | 48.72222 | 2.35607 | 292 ft | 20 kts | 175° |
| 2026-04-19 23:44 | 48.72089 | 2.35666 | 294 ft | 19 kts | 151° |
| 2026-04-19 23:44 | 48.72033 | 2.35750 | 292 ft | 0 kts | 125° |
| 2026-04-19 23:46 | 48.72031 | 2.35755 | 292 ft | 3 kts | 125° |
| 2026-04-19 23:46 | 48.71996 | 2.35843 | 293 ft | 16 kts | 118° |
| 2026-04-19 23:46 | 48.71969 | 2.36014 | 292 ft | 14 kts | 77° |
| 2026-04-19 23:47 | 48.71999 | 2.36182 | 298 ft | 43 kts | 74° |
| 2026-04-19 23:47 | 48.72149 | 2.36986 | 298 ft | 114 kts | 74° |
| 2026-04-19 23:47 | 48.72427 | 2.38423 | 303 ft | 170 kts | 75° |
| 2026-04-19 23:47 | 48.72730 | 2.40320 | 711 ft | 191 kts | 75° |
| 2026-04-19 23:48 | 48.73003 | 2.42292 | 1616 ft | 189 kts | 76° |
| 2026-04-19 23:48 | 48.73247 | 2.44239 | 2434 ft | 188 kts | 82° |
| 2026-04-19 23:48 | 48.73295 | 2.46197 | 3351 ft | 183 kts | 81° |
| 2026-04-19 23:48 | 48.73602 | 2.48116 | 3966 ft | 198 kts | 74° |
| 2026-04-19 23:49 | 48.73875 | 2.50308 | 4178 ft | 225 kts | 81° |
| 2026-04-19 23:49 | 48.74074 | 2.52800 | 4398 ft | 252 kts | 83° |
| 2026-04-19 23:49 | 48.74246 | 2.55516 | 5050 ft | 263 kts | 82° |
| 2026-04-19 23:49 | 48.74497 | 2.58289 | 5877 ft | 268 kts | 81° |
| 2026-04-19 23:50 | 48.74757 | 2.61109 | 6709 ft | 272 kts | 80° |
| 2026-04-19 23:50 | 48.75006 | 2.63994 | 7419 ft | 280 kts | 81° |
| 2026-04-19 23:50 | 48.75246 | 2.66904 | 8214 ft | 284 kts | 81° |
| 2026-04-19 23:50 | 48.75486 | 2.69898 | 9015 ft | 289 kts | 81° |
| 2026-04-19 23:51 | 48.75724 | 2.72953 | 9775 ft | 294 kts | 81° |
| 2026-04-19 23:51 | 48.75963 | 2.76065 | 10508 ft | 300 kts | 81° |
| 2026-04-19 23:51 | 48.76204 | 2.79229 | 11213 ft | 305 kts | 81° |
| 2026-04-19 23:51 | 48.76451 | 2.82459 | 11934 ft | 311 kts | 81° |
| 2026-04-19 23:52 | 48.76701 | 2.85744 | 12670 ft | 317 kts | 81° |
| 2026-04-19 23:52 | 48.76955 | 2.89089 | 13210 ft | 321 kts | 81° |
| 2026-04-19 23:52 | 48.77221 | 2.92583 | 13392 ft | 346 kts | 81° |
| 2026-04-19 23:52 | 48.77505 | 2.96330 | 13591 ft | 370 kts | 81° |
| 2026-04-19 23:53 | 48.77850 | 3.00303 | 13811 ft | 389 kts | 78° |
| 2026-04-19 23:53 | 48.78329 | 3.04407 | 14328 ft | 399 kts | 77° |
| 2026-04-19 23:53 | 48.78852 | 3.08568 | 15025 ft | 403 kts | 76° |
| 2026-04-19 23:53 | 48.79373 | 3.12720 | 15722 ft | 408 kts | 76° |
| 2026-04-19 23:54 | 48.79902 | 3.17033 | 16381 ft | 414 kts | 77° |
| 2026-04-19 23:54 | 48.80420 | 3.21350 | 17020 ft | 420 kts | 77° |
| 2026-04-19 23:54 | 48.80933 | 3.25686 | 17652 ft | 425 kts | 77° |
| 2026-04-19 23:54 | 48.81455 | 3.30129 | 18299 ft | 431 kts | 77° |
| 2026-04-19 23:55 | 48.81988 | 3.34633 | 18873 ft | 435 kts | 75° |
| 2026-04-19 23:55 | 48.82987 | 3.38933 | 19399 ft | 430 kts | 54° |
| 2026-04-19 23:55 | 48.84682 | 3.42632 | 20035 ft | 428 kts | 48° |
| 2026-04-19 23:55 | 48.86454 | 3.46289 | 20639 ft | 431 kts | 48° |
| 2026-04-19 23:56 | 48.88233 | 3.49986 | 21183 ft | 436 kts | 48° |
| 2026-04-19 23:56 | 48.90013 | 3.53724 | 21797 ft | 438 kts | 48° |
| 2026-04-19 23:56 | 48.91799 | 3.57509 | 22222 ft | 442 kts | 48° |
| 2026-04-19 23:56 | 48.93615 | 3.61377 | 22219 ft | 455 kts | 48° |
| 2026-04-19 23:57 | 48.95467 | 3.65339 | 22230 ft | 465 kts | 49° |
| 2026-04-19 23:57 | 48.97350 | 3.69384 | 22221 ft | 470 kts | 49° |
| 2026-04-19 23:57 | 48.99232 | 3.73447 | 22212 ft | 467 kts | 49° |
| 2026-04-19 23:57 | 49.01094 | 3.77475 | 22208 ft | 464 kts | 49° |
| 2026-04-19 23:58 | 49.02951 | 3.81494 | 22235 ft | 463 kts | 49° |
| 2026-04-19 23:58 | 49.04802 | 3.85496 | 22224 ft | 462 kts | 49° |
| 2026-04-19 23:58 | 49.06654 | 3.89503 | 22218 ft | 462 kts | 49° |
| 2026-04-19 23:58 | 49.08503 | 3.93509 | 22210 ft | 462 kts | 49° |
| 2026-04-19 23:59 | 49.10352 | 3.97520 | 22215 ft | 462 kts | 49° |
| 2026-04-19 23:59 | 49.12202 | 4.01539 | 22224 ft | 463 kts | 49° |
| 2026-04-19 23:59 | 49.14060 | 4.05561 | 22222 ft | 464 kts | 48° |
| 2026-04-19 23:59 | 49.16022 | 4.09393 | 22220 ft | 461 kts | 44° |
| 2026-04-20 00:00 | 49.18089 | 4.13125 | 22219 ft | 461 kts | 43° |
| 2026-04-20 00:00 | 49.20173 | 4.16879 | 22217 ft | 462 kts | 44° |
| 2026-04-20 00:00 | 49.22234 | 4.20677 | 22222 ft | 463 kts | 44° |
| 2026-04-20 00:00 | 49.24157 | 4.24648 | 22230 ft | 469 kts | 53° |
| 2026-04-20 00:01 | 49.25663 | 4.29116 | 22235 ft | 474 kts | 62° |
| 2026-04-20 00:01 | 49.26704 | 4.33931 | 22223 ft | 479 kts | 71° |
| 2026-04-20 00:01 | 49.28254 | 4.43839 | 22236 ft | 477 kts | 72° |
| 2026-04-20 00:02 | 49.29014 | 4.48778 | 22219 ft | 476 kts | 72° |
| 2026-04-20 00:02 | 49.29785 | 4.53710 | 22214 ft | 476 kts | 72° |
| 2026-04-20 00:02 | 49.30567 | 4.58630 | 22210 ft | 475 kts | 72° |
| 2026-04-20 00:02 | 49.31358 | 4.63554 | 22212 ft | 475 kts | 72° |
| 2026-04-20 00:03 | 49.32151 | 4.68474 | 22203 ft | 475 kts | 72° |
| 2026-04-20 00:03 | 49.32932 | 4.73328 | 22215 ft | 475 kts | 72° |
| 2026-04-20 00:03 | 49.33722 | 4.78255 | 22210 ft | 476 kts | 72° |
| 2026-04-20 00:03 | 49.34510 | 4.83187 | 22206 ft | 476 kts | 72° |
| 2026-04-20 00:04 | 49.35295 | 4.88123 | 22208 ft | 477 kts | 72° |
| 2026-04-20 00:04 | 49.36077 | 4.93063 | 22214 ft | 477 kts | 72° |
| 2026-04-20 00:04 | 49.36860 | 4.98011 | 22209 ft | 477 kts | 72° |
| 2026-04-20 00:04 | 49.37641 | 5.02963 | 22219 ft | 478 kts | 72° |
| 2026-04-20 00:05 | 49.38439 | 5.07909 | 22194 ft | 476 kts | 70° |
| 2026-04-20 00:05 | 49.39584 | 5.12633 | 22217 ft | 470 kts | 60° |
| 2026-04-20 00:05 | 49.41150 | 5.16990 | 22222 ft | 463 kts | 50° |
| 2026-04-20 00:05 | 49.43048 | 5.20959 | 22213 ft | 460 kts | 47° |
| 2026-04-20 00:06 | 49.44978 | 5.24886 | 22207 ft | 460 kts | 47° |
| 2026-04-20 00:06 | 49.46897 | 5.28830 | 22202 ft | 461 kts | 47° |
| 2026-04-20 00:06 | 49.48800 | 5.32799 | 22205 ft | 461 kts | 48° |
| 2026-04-20 00:06 | 49.50690 | 5.36783 | 22211 ft | 461 kts | 48° |
| 2026-04-20 00:07 | 49.52580 | 5.40784 | 22214 ft | 462 kts | 49° |
| 2026-04-20 00:07 | 49.54463 | 5.44779 | 22203 ft | 461 kts | 49° |
| 2026-04-20 00:07 | 49.56342 | 5.48783 | 22199 ft | 461 kts | 49° |
| 2026-04-20 00:07 | 49.58216 | 5.52795 | 22211 ft | 461 kts | 49° |
| 2026-04-20 00:08 | 49.60091 | 5.56816 | 22205 ft | 461 kts | 49° |
| 2026-04-20 00:08 | 49.61967 | 5.60838 | 22218 ft | 461 kts | 49° |
| 2026-04-20 00:08 | 49.63845 | 5.64849 | 22205 ft | 461 kts | 49° |
| 2026-04-20 00:08 | 49.65726 | 5.68863 | 22204 ft | 461 kts | 49° |
| 2026-04-20 00:09 | 49.67605 | 5.72880 | 22192 ft | 462 kts | 49° |
| 2026-04-20 00:09 | 49.69483 | 5.76902 | 22199 ft | 462 kts | 49° |
| 2026-04-20 00:09 | 49.71335 | 5.80876 | 22190 ft | 462 kts | 49° |
| 2026-04-20 00:09 | 49.73212 | 5.84911 | 22189 ft | 462 kts | 49° |
| 2026-04-20 00:10 | 49.75082 | 5.88940 | 22218 ft | 462 kts | 49° |
| 2026-04-20 00:10 | 49.76950 | 5.92987 | 22196 ft | 462 kts | 49° |
| 2026-04-20 00:10 | 49.78817 | 5.97041 | 22197 ft | 462 kts | 49° |
| 2026-04-20 00:10 | 49.80684 | 6.01098 | 22186 ft | 462 kts | 49° |
| 2026-04-20 00:11 | 49.82551 | 6.05162 | 22207 ft | 462 kts | 49° |
| 2026-04-20 00:11 | 49.84596 | 6.08951 | 22171 ft | 452 kts | 34° |
| 2026-04-20 00:11 | 49.87196 | 6.11474 | 22207 ft | 437 kts | 17° |
| 2026-04-20 00:11 | 49.90052 | 6.12890 | 22194 ft | 426 kts | 4° |
| 2026-04-20 00:12 | 49.92973 | 6.13240 | 22201 ft | 418 kts | 354° |
| 2026-04-20 00:12 | 49.95882 | 6.13226 | 22199 ft | 418 kts | 353° |
| 2026-04-20 00:12 | 49.98787 | 6.13172 | 22191 ft | 418 kts | 353° |
| 2026-04-20 00:12 | 50.01702 | 6.13127 | 22196 ft | 418 kts | 354° |
| 2026-04-20 00:13 | 50.04617 | 6.13104 | 22229 ft | 419 kts | 354° |
| 2026-04-20 00:13 | 50.07543 | 6.13101 | 22207 ft | 421 kts | 354° |
| 2026-04-20 00:13 | 50.10484 | 6.13112 | 22202 ft | 422 kts | 354° |
| 2026-04-20 00:13 | 50.13384 | 6.13128 | 22201 ft | 422 kts | 355° |
| 2026-04-20 00:14 | 50.16318 | 6.13145 | 22197 ft | 421 kts | 354° |
| 2026-04-20 00:14 | 50.19254 | 6.13163 | 22204 ft | 421 kts | 354° |
| 2026-04-20 00:14 | 50.22180 | 6.13179 | 22195 ft | 421 kts | 354° |
| 2026-04-20 00:14 | 50.25118 | 6.13196 | 22198 ft | 421 kts | 355° |
| 2026-04-20 00:15 | 50.28030 | 6.13588 | 22198 ft | 419 kts | 6° |
| 2026-04-20 00:15 | 50.30828 | 6.14833 | 22206 ft | 419 kts | 14° |
| 2026-04-20 00:15 | 50.33507 | 6.16736 | 21751 ft | 428 kts | 25° |
| 2026-04-20 00:15 | 50.36010 | 6.19272 | 21211 ft | 427 kts | 28° |
| 2026-04-20 00:16 | 50.38454 | 6.21881 | 20638 ft | 422 kts | 29° |
| 2026-04-20 00:16 | 50.40867 | 6.24442 | 20039 ft | 417 kts | 28° |
| 2026-04-20 00:16 | 50.43274 | 6.26947 | 19465 ft | 413 kts | 28° |
| 2026-04-20 00:16 | 50.45662 | 6.29411 | 18905 ft | 409 kts | 28° |
| 2026-04-20 00:17 | 50.47938 | 6.32103 | 18304 ft | 412 kts | 39° |
| 2026-04-20 00:17 | 50.49796 | 6.35471 | 17706 ft | 414 kts | 52° |
| 2026-04-20 00:17 | 50.51213 | 6.39400 | 17168 ft | 414 kts | 63° |
| 2026-04-20 00:17 | 50.52312 | 6.43576 | 16614 ft | 411 kts | 65° |
| 2026-04-20 00:18 | 50.53387 | 6.47717 | 16061 ft | 408 kts | 65° |
| 2026-04-20 00:18 | 50.54477 | 6.51811 | 15521 ft | 404 kts | 65° |
| 2026-04-20 00:18 | 50.55576 | 6.55867 | 14954 ft | 402 kts | 64° |
| 2026-04-20 00:18 | 50.56672 | 6.59890 | 14401 ft | 399 kts | 64° |
| 2026-04-20 00:19 | 50.57760 | 6.63889 | 13828 ft | 398 kts | 65° |
| 2026-04-20 00:19 | 50.58841 | 6.67876 | 13212 ft | 394 kts | 65° |
| 2026-04-20 00:19 | 50.59958 | 6.71768 | 12642 ft | 387 kts | 59° |
| 2026-04-20 00:19 | 50.61489 | 6.75196 | 12111 ft | 378 kts | 46° |
| 2026-04-20 00:20 | 50.62704 | 6.77136 | 11771 ft | 373 kts | 39° |
| 2026-04-20 00:20 | 50.64771 | 6.79543 | 11247 ft | 366 kts | 30° |
| 2026-04-20 00:20 | 50.66880 | 6.81673 | 11100 ft | 355 kts | 30° |
| 2026-04-20 00:20 | 50.68930 | 6.83789 | 10956 ft | 348 kts | 30° |
| 2026-04-20 00:21 | 50.70894 | 6.85885 | 10787 ft | 332 kts | 34° |
| 2026-04-20 00:21 | 50.72491 | 6.88385 | 10640 ft | 317 kts | 48° |
| 2026-04-20 00:21 | 50.73848 | 6.91022 | 10513 ft | 302 kts | 48° |
| 2026-04-20 00:21 | 50.75161 | 6.93560 | 10378 ft | 296 kts | 47° |
| 2026-04-20 00:22 | 50.76469 | 6.96067 | 10263 ft | 294 kts | 47° |
| 2026-04-20 00:22 | 50.77773 | 6.98557 | 10026 ft | 296 kts | 47° |
| 2026-04-20 00:22 | 50.79099 | 7.01080 | 9730 ft | 300 kts | 47° |
| 2026-04-20 00:22 | 50.80425 | 7.03603 | 9414 ft | 295 kts | 47° |
| 2026-04-20 00:23 | 50.81719 | 7.06068 | 9114 ft | 289 kts | 47° |
| 2026-04-20 00:23 | 50.82999 | 7.08506 | 8822 ft | 286 kts | 47° |
| 2026-04-20 00:23 | 50.84252 | 7.10892 | 8536 ft | 284 kts | 47° |
| 2026-04-20 00:23 | 50.85279 | 7.13544 | 8219 ft | 287 kts | 71° |
| 2026-04-20 00:24 | 50.85326 | 7.16631 | 7990 ft | 280 kts | 105° |
| 2026-04-20 00:24 | 50.84549 | 7.19354 | 7745 ft | 266 kts | 118° |
| 2026-04-20 00:24 | 50.83658 | 7.21857 | 7454 ft | 256 kts | 119° |
| 2026-04-20 00:24 | 50.82785 | 7.24270 | 7200 ft | 250 kts | 119° |
| 2026-04-20 00:25 | 50.81936 | 7.26627 | 6971 ft | 243 kts | 119° |
| 2026-04-20 00:25 | 50.81111 | 7.28935 | 6729 ft | 240 kts | 118° |
| 2026-04-20 00:25 | 50.80297 | 7.31222 | 6506 ft | 237 kts | 118° |
| 2026-04-20 00:25 | 50.79498 | 7.33474 | 6253 ft | 234 kts | 118° |
| 2026-04-20 00:26 | 50.78707 | 7.35712 | 6026 ft | 232 kts | 118° |
| 2026-04-20 00:26 | 50.77914 | 7.37955 | 5811 ft | 235 kts | 118° |
| 2026-04-20 00:26 | 50.77106 | 7.40240 | 5503 ft | 240 kts | 118° |
| 2026-04-20 00:26 | 50.76299 | 7.42517 | 5341 ft | 237 kts | 118° |
| 2026-04-20 00:27 | 50.75496 | 7.44774 | 5180 ft | 234 kts | 120° |
| 2026-04-20 00:27 | 50.74425 | 7.46568 | 5072 ft | 218 kts | 151° |
| 2026-04-20 00:27 | 50.73043 | 7.47251 | 5007 ft | 205 kts | 180° |
| 2026-04-20 00:27 | 50.71677 | 7.46959 | 4930 ft | 200 kts | 204° |
| 2026-04-20 00:28 | 50.70510 | 7.45844 | 4846 ft | 195 kts | 228° |
| 2026-04-20 00:28 | 50.69748 | 7.44097 | 4670 ft | 194 kts | 252° |
| 2026-04-20 00:28 | 50.69515 | 7.42032 | 4457 ft | 190 kts | 275° |
| 2026-04-20 00:28 | 50.69787 | 7.40037 | 4250 ft | 184 kts | 294° |
| 2026-04-20 00:29 | 50.70570 | 7.38500 | 4038 ft | 179 kts | 319° |
| 2026-04-20 00:29 | 50.71476 | 7.37148 | 3846 ft | 181 kts | 315° |
| 2026-04-20 00:29 | 50.72385 | 7.35744 | 3652 ft | 183 kts | 316° |
| 2026-04-20 00:29 | 50.73308 | 7.34367 | 3434 ft | 183 kts | 317° |
| 2026-04-20 00:30 | 50.74235 | 7.33007 | 3222 ft | 179 kts | 317° |
| 2026-04-20 00:30 | 50.75121 | 7.31714 | 3065 ft | 167 kts | 318° |
| 2026-04-20 00:30 | 50.75927 | 7.30539 | 3011 ft | 148 kts | 318° |
| 2026-04-20 00:30 | 50.76672 | 7.29454 | 2806 ft | 144 kts | 319° |
| 2026-04-20 00:31 | 50.77404 | 7.28388 | 2611 ft | 142 kts | 319° |
| 2026-04-20 00:31 | 50.78126 | 7.27338 | 2423 ft | 141 kts | 319° |
| 2026-04-20 00:31 | 50.78848 | 7.26286 | 2230 ft | 142 kts | 320° |
| 2026-04-20 00:31 | 50.79564 | 7.25244 | 2034 ft | 142 kts | 320° |
| 2026-04-20 00:32 | 50.80290 | 7.24188 | 1839 ft | 141 kts | 320° |
| 2026-04-20 00:32 | 50.81015 | 7.23132 | 1642 ft | 142 kts | 320° |
| 2026-04-20 00:32 | 50.81742 | 7.22076 | 1427 ft | 142 kts | 319° |
| 2026-04-20 00:32 | 50.82469 | 7.21018 | 1227 ft | 142 kts | 319° |
| 2026-04-20 00:33 | 50.83209 | 7.19956 | 1002 ft | 144 kts | 318° |
| 2026-04-20 00:33 | 50.83945 | 7.18887 | 805 ft | 144 kts | 316° |
| 2026-04-20 00:33 | 50.84674 | 7.17800 | 596 ft | 144 kts | 317° |
| 2026-04-20 00:33 | 50.85412 | 7.16730 | 408 ft | 143 kts | 317° |
| 2026-04-20 00:34 | 50.86132 | 7.15694 | 290 ft | 132 kts | 317° |
| 2026-04-20 00:34 | 50.86731 | 7.14810 | 256 ft | 98 kts | 317° |
| 2026-04-20 00:34 | 50.87130 | 7.14235 | 258 ft | 56 kts | 317° |
| 2026-04-20 00:34 | 50.87287 | 7.13913 | 250 ft | 24 kts | 290° |
| 2026-04-20 00:35 | 50.87316 | 7.13748 | 246 ft | 0 kts | 281° |
| 2026-04-20 00:35 | 50.87317 | 7.13739 | 246 ft | 2 kts | 281° |
| 2026-04-20 00:35 | 50.87320 | 7.13713 | 246 ft | 3 kts | 280° |
| 2026-04-20 00:35 | 50.87324 | 7.13668 | 245 ft | 5 kts | 278° |
| 2026-04-20 00:36 | 50.87334 | 7.13563 | 238 ft | 16 kts | 280° |
| 2026-04-20 00:36 | 50.87410 | 7.13373 | 234 ft | 23 kts | 318° |
| 2026-04-20 00:36 | 50.87529 | 7.13200 | 231 ft | 23 kts | 317° |
| 2026-04-20 00:36 | 50.87646 | 7.13029 | 230 ft | 22 kts | 317° |
| 2026-04-20 00:37 | 50.87760 | 7.12865 | 230 ft | 22 kts | 317° |
| 2026-04-20 00:37 | 50.87787 | 7.12709 | 229 ft | 14 kts | 279° |
| 2026-04-20 00:37 | 50.87877 | 7.12611 | 229 ft | 18 kts | 4° |
| 2026-04-20 00:37 | 50.87993 | 7.12578 | 231 ft | 18 kts | 315° |
| 2026-04-20 00:38 | 50.88058 | 7.12418 | 229 ft | 17 kts | 300° |
| 2026-04-20 00:38 | 50.88104 | 7.12265 | 229 ft | 12 kts | 279° |
| 2026-04-20 00:38 | 50.88067 | 7.12199 | 229 ft | 5 kts | 215° |
| 2026-04-20 00:38 | 50.88062 | 7.12192 | 229 ft | 0 kts | 216° |
| 2026-04-20 00:39 | 50.88061 | 7.12192 | 229 ft | 0 kts | 216° |